createdAt,value
2023-01-10T00:01:45.541Z,99385.10
2023-01-10T00:04:13.732Z,99383.90
2023-01-10T00:06:41.636Z,99386.31
2023-01-10T00:09:11.815Z,99391.81
2023-01-10T00:11:58.397Z,99393.35
2023-01-10T00:14:29.919Z,99394.91
2023-01-10T00:17:04.634Z,99391.80
2023-01-10T00:19:32.580Z,99396.27
2023-01-10T00:22:09.380Z,99404.88
2023-01-10T00:24:37.331Z,99407.96
2023-01-10T00:27:05.111Z,99404.18
2023-01-10T00:29:34.091Z,99409.34
2023-01-10T00:32:02.414Z,99407.28
2023-01-10T00:34:31.142Z,99413.81
2023-01-10T00:36:58.913Z,99413.47
2023-01-10T00:39:27.625Z,99422.06
2023-01-10T00:42:14.399Z,99426.70
2023-01-10T00:44:42.188Z,99433.58
2023-01-10T00:47:10.042Z,99436.33
2023-01-10T00:49:37.831Z,99435.98
2023-01-10T00:52:05.763Z,99439.59
2023-01-10T00:54:33.923Z,99445.08
2023-01-10T00:57:01.815Z,99448.70
2023-01-10T00:59:29.645Z,99450.59
2023-01-10T01:01:57.623Z,99456.61
2023-01-10T01:04:25.587Z,99452.14
2023-01-10T01:06:53.414Z,99454.05
2023-01-10T01:09:21.278Z,99456.10
2023-01-10T01:11:49.594Z,99461.09
2023-01-10T01:14:17.734Z,99460.57
2023-01-10T01:16:45.487Z,99464.69
2023-01-10T01:19:13.250Z,99468.64
2023-01-10T01:21:41.062Z,99469.17
2023-01-10T01:24:11.124Z,99469.33
2023-01-10T01:26:39.908Z,99474.84
2023-01-10T01:29:07.682Z,99476.72
2023-01-10T01:31:35.474Z,99479.31
2023-01-10T01:34:03.805Z,99484.80
2023-01-10T01:36:32.215Z,99482.41
2023-01-10T01:39:00.044Z,99485.50
2023-01-10T01:41:46.203Z,99485.50
2023-01-10T01:44:17.507Z,99488.41
2023-01-10T01:46:50.200Z,99490.98
2023-01-10T01:49:24.145Z,99488.59
2023-01-10T01:51:59.670Z,99495.98
2023-01-10T01:54:29.667Z,99490.31
2023-01-10T01:57:05.787Z,99494.60
2023-01-10T01:59:37.455Z,99495.29
2023-01-10T02:02:14.338Z,99500.61
2023-01-10T02:04:48.916Z,99504.05
2023-01-10T02:07:17.636Z,99509.73
2023-01-10T02:09:56.677Z,99514.04
2023-01-10T02:12:27.330Z,99512.83
2023-01-10T02:14:56.084Z,99516.27
2023-01-10T02:17:24.033Z,99516.61
2023-01-10T02:20:03.348Z,99517.48
2023-01-10T02:22:46.425Z,99519.88
2023-01-10T02:25:33.006Z,99523.48
2023-01-10T02:28:09.953Z,99527.77
2023-01-10T02:30:49.698Z,99528.98
2023-01-10T02:36:46.701Z,99527.44
2023-01-10T02:39:42.545Z,99529.15
2023-01-10T02:42:24.001Z,99530.19
2023-01-10T02:45:00.362Z,99527.77
2023-01-10T02:47:35.907Z,99529.48
2023-01-10T02:50:41.533Z,99530.51
2023-01-10T02:53:16.685Z,99536.35
2023-01-10T02:56:06.820Z,99535.84
2023-01-10T02:58:53.752Z,99536.85
2023-01-10T03:01:59.113Z,99539.95
2023-01-10T03:04:39.736Z,99546.14
2023-01-10T03:07:23.381Z,99544.59
2023-01-10T03:10:15.889Z,99547.34
2023-01-10T03:13:02.590Z,99548.70
2023-01-10T03:15:35.616Z,99549.89
2023-01-10T03:18:10.981Z,99550.92
2023-01-10T03:20:42.260Z,99548.01
2023-01-10T03:23:11.316Z,99549.20
2023-01-10T03:25:40.736Z,99548.87
2023-01-10T03:28:42.364Z,99552.48
2023-01-10T03:31:17.613Z,99555.73
2023-01-10T03:33:45.653Z,99558.14
2023-01-10T03:36:19.041Z,99560.72
2023-01-10T03:39:40.928Z,99561.74
2023-01-10T03:42:15.075Z,99566.89
2023-01-10T03:44:57.531Z,99570.16
2023-01-10T03:47:45.723Z,99572.20
2023-01-10T03:50:18.019Z,99574.45
2023-01-10T03:52:46.094Z,99573.94
2023-01-10T03:55:16.603Z,99575.99
2023-01-10T03:57:45.971Z,99584.41
2023-01-10T04:05:01.217Z,99594.02
2023-01-10T04:07:29.225Z,99597.79
2023-01-10T04:09:57.638Z,99604.86
2023-01-10T04:12:25.468Z,99606.57
2023-01-10T04:14:53.507Z,99611.21
2023-01-10T04:17:21.388Z,99617.56
2023-01-10T04:19:49.325Z,99616.36
2023-01-10T04:22:17.099Z,99620.30
2023-01-10T04:24:47.103Z,99622.37
2023-01-10T04:27:14.905Z,99624.08
2023-01-10T04:29:42.811Z,99622.02
2023-01-10T04:34:39.469Z,99631.47
2023-01-10T04:37:07.500Z,99639.70
2023-01-10T04:39:35.358Z,99641.06
2023-01-10T04:42:03.259Z,99640.17
2023-01-10T04:44:31.289Z,99646.70
2023-01-10T04:46:59.352Z,99649.62
2023-01-10T04:49:27.315Z,99655.79
2023-01-10T04:51:55.111Z,99657.16
2023-01-10T04:54:23.543Z,99663.84
2023-01-10T04:56:51.533Z,99662.80
2023-01-10T04:59:19.451Z,99675.33
2023-01-10T05:01:47.366Z,99677.91
2023-01-10T05:04:15.592Z,99679.78
2023-01-10T05:06:43.655Z,99688.88
2023-01-10T05:09:11.703Z,99688.00
2023-01-10T05:11:39.577Z,99696.77
2023-01-10T05:14:07.642Z,99705.01
2023-01-10T05:16:36.636Z,99713.27
2023-01-10T05:19:04.556Z,99715.85
2023-01-10T05:21:32.456Z,99719.63
2023-01-10T05:24:00.267Z,99724.45
2023-01-10T05:26:28.152Z,99727.73
2023-01-10T05:28:56.034Z,99730.99
2023-01-10T05:31:24.197Z,99734.41
2023-01-10T05:33:52.379Z,99744.91
2023-01-10T05:36:20.512Z,99747.16
2023-01-10T05:38:48.286Z,99754.89
2023-01-10T05:41:16.122Z,99760.20
2023-01-10T05:43:43.898Z,99767.08
2023-01-10T05:46:11.887Z,99773.77
2023-01-10T05:48:39.735Z,99776.87
2023-01-10T05:51:08.145Z,99781.84
2023-01-10T05:53:36.088Z,99787.33
2023-01-10T05:56:04.503Z,99787.14
2023-01-10T05:58:32.373Z,99793.67
2023-01-10T06:01:00.891Z,99797.44
2023-01-10T06:03:28.736Z,99802.58
2023-01-10T06:05:57.424Z,99805.66
2023-01-10T06:08:25.383Z,99811.83
2023-01-10T06:10:53.267Z,99815.60
2023-01-10T06:13:21.439Z,99814.90
2023-01-10T06:15:49.706Z,99820.39
2023-01-10T06:18:17.540Z,99819.69
2023-01-10T06:20:45.497Z,99828.58
2023-01-10T06:23:13.476Z,99835.43
2023-01-10T06:25:41.781Z,99838.69
2023-01-10T06:28:11.475Z,99843.48
2023-01-10T06:30:42.127Z,99845.02
2023-01-10T06:33:11.572Z,99847.74
2023-01-10T06:35:40.309Z,99848.08
2023-01-10T06:38:08.521Z,99852.69
2023-01-10T06:40:36.461Z,99852.33
2023-01-10T06:43:04.458Z,99861.57
2023-01-10T06:45:33.420Z,99867.55
2023-01-10T07:32:34.038Z,99924.92
2023-01-10T07:35:02.379Z,99928.23
2023-01-10T07:37:30.579Z,99922.20
2023-01-10T07:39:58.371Z,99928.04
2023-01-10T07:42:26.224Z,99930.59
2023-01-10T07:44:54.088Z,99936.58
2023-01-10T07:47:22.108Z,99936.22
2023-01-10T07:49:49.904Z,99930.85
2023-01-10T07:52:17.763Z,99933.63
2023-01-10T07:54:45.539Z,99940.66
2023-01-10T07:57:14.790Z,99940.65
2023-01-10T07:59:42.942Z,99944.80
2023-01-10T08:02:11.248Z,99950.48
2023-01-10T08:04:39.126Z,99954.73
2023-01-10T08:07:07.060Z,99955.94
2023-01-10T08:09:34.906Z,99960.94
2023-01-10T08:12:02.753Z,99968.13
2023-01-10T08:14:30.660Z,99976.02
2023-01-10T08:16:58.519Z,99972.27
2023-01-10T08:19:26.260Z,99977.42
2023-01-10T08:21:55.446Z,99976.17
2023-01-10T08:24:23.279Z,99983.55
2023-01-10T08:26:51.103Z,99987.17
2023-01-10T08:29:18.944Z,99982.52
2023-01-10T08:31:46.722Z,99982.17
2023-01-10T08:34:14.702Z,99988.69
2023-01-10T08:36:42.690Z,99990.42
2023-01-10T08:39:10.458Z,99991.29
2023-01-10T08:41:39.678Z,99994.91
2023-01-10T08:44:07.704Z,99999.41
2023-01-10T08:46:35.512Z,100002.02
2023-01-10T08:49:03.329Z,100006.66
2023-01-10T08:51:31.118Z,100010.13
2023-01-10T08:53:58.880Z,100013.39
2023-01-10T08:56:26.684Z,100019.64
2023-01-10T08:58:54.487Z,100024.52
2023-01-10T09:01:22.485Z,100030.56
2023-01-10T09:03:50.709Z,100036.10
2023-01-10T09:06:18.632Z,100037.15
2023-01-10T09:08:46.494Z,100044.04
2023-01-10T09:11:14.239Z,100046.61
2023-01-10T09:13:42.408Z,100048.72
2023-01-10T09:16:10.861Z,100044.10
2023-01-10T09:18:38.825Z,100044.48
2023-01-10T09:21:06.672Z,100045.91
2023-01-10T09:23:36.923Z,100042.17
2023-01-10T09:26:05.140Z,100040.49
2023-01-10T09:28:33.057Z,100046.88
2023-01-10T09:31:01.364Z,100047.77
2023-01-10T09:33:35.159Z,100046.79
2023-01-10T09:36:15.481Z,100048.21
2023-01-10T09:38:44.706Z,100049.78
2023-01-10T09:41:32.828Z,100049.32
2023-01-10T09:44:20.772Z,100052.11
2023-01-10T09:46:48.615Z,100046.62
2023-01-10T09:49:28.402Z,100049.02
2023-01-10T09:51:59.184Z,100049.55
2023-01-10T09:54:31.633Z,100051.33
2023-01-10T09:57:01.422Z,100049.27
2023-01-10T09:59:38.074Z,100049.48
2023-01-10T10:02:30.374Z,100045.72
2023-01-10T10:23:34.355Z,100057.94
2023-01-10T10:26:11.711Z,100057.45
2023-01-10T10:28:58.967Z,100056.37
2023-01-10T10:31:39.200Z,100057.56
2023-01-10T10:34:25.640Z,100062.91
2023-01-10T10:36:59.051Z,100066.91
2023-01-10T10:39:39.039Z,100064.20
2023-01-10T10:42:13.402Z,100060.98
2023-01-10T10:44:55.447Z,100067.71
2023-01-10T10:47:24.342Z,100073.59
2023-01-10T10:50:05.077Z,100076.98
2023-01-10T10:52:36.350Z,100075.09
2023-01-10T10:55:06.132Z,100082.31
2023-01-10T10:57:38.745Z,100086.30
2023-01-10T11:04:38.028Z,100080.66
2023-01-10T11:07:05.922Z,100083.59
2023-01-10T11:09:40.438Z,100083.71
2023-01-10T11:12:17.353Z,100085.05
2023-01-10T11:14:51.547Z,100088.80
2023-01-10T11:17:27.801Z,100095.17
2023-01-10T11:19:56.805Z,100100.67
2023-01-10T11:22:39.728Z,100109.28
2023-01-10T11:25:16.075Z,100113.08
2023-01-10T11:27:50.123Z,100118.72
2023-01-10T11:30:47.541Z,100121.29
2023-01-10T11:33:22.770Z,100124.66
2023-01-10T11:36:00.829Z,100126.55
2023-01-10T11:38:30.352Z,100128.22
2023-01-10T11:41:01.530Z,100131.23
2023-01-10T11:43:33.317Z,100141.11
2023-01-10T11:46:13.468Z,100138.35
2023-01-10T11:49:04.821Z,100145.89
2023-01-10T11:51:38.310Z,100149.17
2023-01-10T11:54:19.892Z,100145.05
2023-01-10T11:57:08.959Z,100145.27
2023-01-10T11:59:39.154Z,100154.25
2023-01-10T12:02:24.415Z,100159.92
2023-01-10T12:04:55.890Z,100166.61
2023-01-10T12:07:23.870Z,100166.77
2023-01-10T12:10:00.416Z,100168.31
2023-01-10T12:12:35.809Z,100172.80
2023-01-10T12:15:24.108Z,100175.73
2023-01-10T12:17:53.902Z,100180.69
2023-01-10T12:20:22.822Z,100185.29
2023-01-10T12:22:58.629Z,100188.01
2023-01-10T12:25:42.232Z,100191.77
2023-01-10T12:28:30.773Z,100196.57
2023-01-10T12:31:01.259Z,100196.41
2023-01-10T12:33:35.791Z,100196.46
2023-01-10T12:36:33.068Z,100194.45
2023-01-10T12:39:03.913Z,100200.88
2023-01-10T12:42:05.694Z,100207.77
2023-01-10T12:44:39.641Z,100210.15
2023-01-10T12:47:29.815Z,100210.34
2023-01-10T12:50:00.562Z,100215.17
2023-01-10T12:52:45.743Z,100221.38
2023-01-10T12:55:18.364Z,100223.08
2023-01-10T12:57:57.527Z,100226.48
2023-01-10T13:00:40.563Z,100230.45
2023-01-10T13:03:26.006Z,100230.46
2023-01-10T13:05:54.384Z,100235.27
2023-01-10T13:08:26.507Z,100242.33
2023-01-10T13:10:55.867Z,100246.42
2023-01-10T13:13:35.567Z,100247.59
2023-01-10T13:16:15.893Z,100252.25
2023-01-10T13:19:04.083Z,100259.63
2023-01-10T13:21:34.323Z,100259.95
2023-01-10T13:24:05.746Z,100267.16
2023-01-10T13:26:47.145Z,100274.17
2023-01-10T13:29:19.890Z,100287.52
2023-01-10T13:31:50.344Z,100297.09
2023-01-10T13:34:20.123Z,100297.67
2023-01-10T13:36:57.067Z,100294.86
2023-01-10T13:39:32.687Z,100296.39
2023-01-10T13:42:19.195Z,100293.07
2023-01-10T13:45:02.569Z,100295.08
2023-01-10T13:47:39.515Z,100297.59
2023-01-10T13:50:22.520Z,100305.63
2023-01-10T13:52:51.051Z,100311.23
2023-01-10T13:55:29.653Z,100319.11
2023-01-10T13:58:21.316Z,100319.58
2023-01-10T14:01:10.522Z,100323.15
2023-01-10T14:03:58.386Z,100323.10
2023-01-10T14:06:29.281Z,100328.73
2023-01-10T14:09:00.309Z,100333.86
2023-01-10T14:11:51.851Z,100340.05
2023-01-10T14:14:24.937Z,100338.65
2023-01-10T14:16:56.802Z,100338.80
2023-01-10T14:19:29.882Z,100341.85
2023-01-10T14:22:00.677Z,100345.43
2023-01-10T14:24:43.831Z,100342.95
2023-01-10T14:27:15.078Z,100343.23
2023-01-10T14:29:50.383Z,100341.57
2023-01-10T14:32:32.643Z,100353.86
2023-01-10T14:35:03.702Z,100361.11
2023-01-10T14:37:37.815Z,100362.17
2023-01-10T14:40:35.217Z,100360.34
2023-01-10T14:43:06.720Z,100356.10
2023-01-10T14:45:38.695Z,100357.59
2023-01-10T14:48:29.113Z,100361.28
2023-01-10T14:51:21.681Z,100364.08
2023-01-10T15:18:45.761Z,100383.11
2023-01-10T15:21:16.184Z,100390.89
2023-01-10T15:23:46.553Z,100388.04
2023-01-10T15:26:21.358Z,100395.60
2023-01-10T15:29:06.015Z,100399.78
2023-01-10T15:31:38.702Z,100408.08
2023-01-10T15:34:15.138Z,100407.29
2023-01-10T15:36:48.350Z,100406.20
2023-01-10T15:39:23.063Z,100403.91
2023-01-10T15:41:57.103Z,100408.47
2023-01-10T15:45:00.785Z,100415.30
2023-01-10T15:47:36.020Z,100420.55
2023-01-10T15:50:41.039Z,100420.79
2023-01-10T15:53:11.497Z,100425.60
2023-01-10T15:55:55.861Z,100425.40
2023-01-10T15:58:36.326Z,100428.30
2023-01-10T16:01:05.106Z,100430.84
2023-01-10T16:03:39.075Z,100434.75
2023-01-10T16:06:12.529Z,100441.03
2023-01-10T16:08:40.400Z,100441.89
2023-01-10T16:11:39.444Z,100444.96
2023-01-10T16:14:07.410Z,100442.35
2023-01-10T16:16:35.261Z,100444.73
2023-01-10T16:19:03.275Z,100444.04
2023-01-10T16:21:42.054Z,100444.52
2023-01-10T16:24:19.952Z,100443.96
2023-01-10T16:26:49.703Z,100442.39
2023-01-10T16:29:20.433Z,100444.23
2023-01-10T16:31:49.215Z,100447.30
2023-01-10T16:34:17.388Z,100450.34
2023-01-10T16:36:45.214Z,100450.79
2023-01-10T16:39:16.260Z,100451.61
2023-01-10T16:42:04.035Z,100451.39
2023-01-10T16:44:33.440Z,100440.66
2023-01-10T16:47:02.226Z,100443.73
2023-01-10T16:49:32.298Z,100446.23
2023-01-10T16:52:00.203Z,100447.91
2023-01-10T16:54:28.561Z,100451.95
2023-01-10T16:56:56.348Z,100452.41
2023-01-10T16:59:24.254Z,100456.11
2023-01-10T17:01:58.444Z,100462.39
2023-01-10T17:04:30.670Z,100473.95
2023-01-10T17:06:59.182Z,100482.60
2023-01-10T17:09:29.923Z,100490.36
2023-01-10T17:12:02.453Z,100498.23
2023-01-10T17:14:32.600Z,100504.34
2023-01-10T17:17:03.149Z,100511.27
2023-01-10T17:19:31.520Z,100511.38
2023-01-10T17:22:00.206Z,100510.81
2023-01-10T17:24:29.892Z,100507.83
2023-01-10T17:26:57.805Z,100512.26
2023-01-10T17:29:25.587Z,100514.11
2023-01-10T17:31:53.511Z,100517.46
2023-01-10T17:34:21.381Z,100521.05
2023-01-10T17:36:49.133Z,100523.58
2023-01-10T17:39:17.208Z,100520.80
2023-01-10T17:41:45.040Z,100521.66
2023-01-10T17:44:13.061Z,100528.34
2023-01-10T17:46:40.833Z,100527.08
2023-01-10T17:49:08.692Z,100526.89
2023-01-10T17:51:36.588Z,100529.25
2023-01-10T17:54:04.505Z,100530.55
2023-01-10T17:56:32.398Z,100538.54
2023-01-10T17:59:00.346Z,100547.36
2023-01-10T18:01:28.432Z,100553.44
2023-01-10T18:03:56.958Z,100556.65
2023-01-10T18:06:25.726Z,100554.67
2023-01-10T18:08:54.326Z,100552.73
2023-01-10T18:11:25.024Z,100551.16
2023-01-10T18:13:55.042Z,100553.80
2023-01-10T18:16:27.259Z,100556.27
2023-01-10T18:18:55.875Z,100553.27
2023-01-10T18:21:23.674Z,100559.84
2023-01-10T18:23:59.380Z,100563.13
2023-01-10T18:26:27.225Z,100572.18
2023-01-10T18:28:55.055Z,100578.18
2023-01-10T18:31:23.010Z,100579.69
2023-01-10T18:33:51.313Z,100580.52
2023-01-10T18:36:24.396Z,100577.64
2023-01-10T18:38:52.871Z,100578.66
2023-01-10T18:41:21.389Z,100578.66
2023-01-10T18:43:49.328Z,100582.93
2023-01-10T18:46:20.145Z,100589.25
2023-01-10T18:48:51.059Z,100594.55
2023-01-10T18:51:19.356Z,100596.51
2023-01-10T18:53:48.949Z,100599.75
2023-01-10T18:56:17.254Z,100606.05
2023-01-10T18:58:45.387Z,100613.17
2023-01-10T19:04:36.971Z,100617.70
2023-01-10T19:07:04.820Z,100617.89
2023-01-10T19:09:32.911Z,100618.49
2023-01-10T19:12:01.147Z,100616.86
2023-01-10T19:14:29.054Z,100624.30
2023-01-10T19:16:57.090Z,100625.54
2023-01-10T19:19:25.061Z,100632.75
2023-01-10T19:21:53.035Z,100633.60
2023-01-10T19:24:24.261Z,100638.00
2023-01-10T19:26:52.203Z,100638.60
2023-01-10T19:29:20.380Z,100633.85
2023-01-10T19:31:50.078Z,100629.80
2023-01-10T19:34:19.542Z,100631.77
2023-01-10T19:36:47.680Z,100635.45
2023-01-10T19:39:15.719Z,100638.39
2023-01-10T19:41:43.644Z,100637.23
2023-01-10T19:44:14.238Z,100640.34
2023-01-10T19:46:44.167Z,100644.80
2023-01-10T19:49:17.169Z,100647.90
2023-01-10T19:51:51.434Z,100649.32
2023-01-10T19:54:19.983Z,100647.83
2023-01-10T19:56:47.869Z,100643.05
2023-01-10T19:59:17.745Z,100641.67
2023-01-10T20:01:46.200Z,100641.83
2023-01-10T20:04:14.900Z,100638.80
2023-01-10T20:06:42.919Z,100643.98
2023-01-10T20:09:12.614Z,100645.60
2023-01-10T20:11:43.016Z,100640.69
2023-01-10T20:14:14.509Z,100643.67
2023-01-10T20:16:42.981Z,100644.72
2023-01-10T20:19:12.565Z,100647.87
2023-01-10T20:21:41.774Z,100653.81
2023-01-10T20:24:16.761Z,100661.48
2023-01-10T20:26:46.518Z,100658.98
2023-01-10T20:29:15.128Z,100655.05
2023-01-10T20:31:46.411Z,100654.58
2023-01-10T20:34:14.410Z,100656.97
2023-01-10T20:36:42.292Z,100655.11
2023-01-10T20:39:10.223Z,100652.94
2023-01-10T20:41:38.061Z,100655.48
2023-01-10T20:44:06.686Z,100653.38
2023-01-10T20:46:35.007Z,100651.98
2023-01-10T20:49:03.434Z,100651.77
2023-01-10T20:51:35.421Z,100655.46
2023-01-10T20:54:05.847Z,100662.67
2023-01-10T20:56:35.298Z,100665.68
2023-01-10T20:59:05.417Z,100675.32
2023-01-10T21:01:35.638Z,100676.75
2023-01-10T21:04:06.426Z,100676.52
2023-01-10T21:06:35.912Z,100676.23
2023-01-10T21:09:05.383Z,100669.85
2023-01-10T21:11:44.383Z,100673.95
2023-01-10T21:14:20.002Z,100673.74
2023-01-10T21:16:49.443Z,100673.42
2023-01-10T21:19:17.450Z,100671.91
2023-01-10T21:21:45.411Z,100667.71
2023-01-10T21:24:13.320Z,100666.52
2023-01-10T21:26:41.597Z,100673.51
2023-01-10T21:29:11.527Z,100674.18
2023-01-10T21:31:40.911Z,100674.52
2023-01-10T21:34:08.910Z,100677.09
2023-01-10T21:36:36.703Z,100679.83
2023-01-10T21:39:04.685Z,100676.77
2023-01-10T21:41:51.197Z,100676.51
2023-01-10T21:44:20.344Z,100684.61
2023-01-10T21:46:51.286Z,100684.30
2023-01-10T21:49:19.306Z,100684.52
2023-01-10T21:51:47.472Z,100685.09
2023-01-10T21:54:15.333Z,100686.64
2023-01-10T21:56:43.203Z,100693.60
2023-01-10T21:59:11.101Z,100698.73
2023-01-10T22:01:39.031Z,100698.01
2023-01-10T22:04:07.139Z,100695.92
2023-01-10T22:06:35.074Z,100698.82
2023-01-10T22:09:02.961Z,100702.81
2023-01-10T22:11:30.879Z,100710.15
2023-01-10T22:13:59.209Z,100708.14
2023-01-10T22:16:27.085Z,100705.23
2023-01-10T22:18:54.885Z,100699.30
2023-01-10T22:21:22.681Z,100700.02
2023-01-10T22:23:50.530Z,100700.23
2023-01-10T22:26:18.365Z,100700.98
2023-01-10T22:28:46.252Z,100701.02
2023-01-10T22:31:14.207Z,100700.23
2023-01-10T22:33:43.082Z,100702.77
2023-01-10T22:36:16.636Z,100699.29
2023-01-10T22:38:46.196Z,100700.13
2023-01-10T22:41:16.551Z,100700.61
2023-01-10T22:43:45.000Z,100699.94
2023-01-10T22:46:16.608Z,100703.31
2023-01-10T22:48:44.698Z,100707.31
2023-01-10T22:51:14.217Z,100714.38
2023-01-10T22:53:42.965Z,100717.63
2023-01-10T22:56:11.459Z,100715.52
2023-01-10T22:58:39.406Z,100717.55
2023-01-10T23:01:07.964Z,100719.26
2023-01-10T23:03:36.198Z,100718.93
2023-01-10T23:06:04.388Z,100719.63
2023-01-10T23:08:33.063Z,100720.55
2023-01-10T23:11:01.523Z,100721.42
2023-01-10T23:13:29.724Z,100720.07
2023-01-10T23:16:03.361Z,100719.56
2023-01-10T23:18:31.600Z,100721.79
2023-01-10T23:21:00.159Z,100720.95
2023-01-10T23:23:28.163Z,100723.69
2023-01-10T23:26:03.757Z,100720.97
2023-01-10T23:28:34.905Z,100720.35
2023-01-10T23:31:04.596Z,100724.21
2023-01-10T23:33:33.219Z,100722.03
2023-01-10T23:36:01.575Z,100723.44
2023-01-10T23:38:30.127Z,100723.59
2023-01-10T23:40:58.841Z,100724.66
2023-01-10T23:43:26.863Z,100725.52
2023-01-10T23:45:54.965Z,100725.65
2023-01-10T23:48:23.213Z,100729.96
2023-01-10T23:50:51.492Z,100733.23
2023-01-10T23:53:19.722Z,100727.98
2023-01-10T23:55:47.614Z,100723.52
2023-01-10T23:58:16.920Z,100724.54
